sensor_id;sensor_type;location;lat;lon;timestamp;temperature;humidity
19044;DHT22;9654;52.302;8.120;2023-05-27T00:02:16;7.90;99.90
19044;DHT22;9654;52.302;8.120;2023-05-27T00:04:44;7.90;99.90
19044;DHT22;9654;52.302;8.120;2023-05-27T00:07:11;7.90;99.90
19044;DHT22;9654;52.302;8.120;2023-05-27T00:09:37;7.90;99.90
19044;DHT22;9654;52.302;8.120;2023-05-27T00:12:04;7.90;99.90
19044;DHT22;9654;52.302;8.120;2023-05-27T00:14:31;7.90;99.90
19044;DHT22;9654;52.302;8.120;2023-05-27T00:16:58;7.80;99.90
19044;DHT22;9654;52.302;8.120;2023-05-27T00:19:26;7.80;99.90
19044;DHT22;9654;52.302;8.120;2023-05-27T00:21:56;7.70;99.90
19044;DHT22;9654;52.302;8.120;2023-05-27T00:24:23;7.70;99.90
19044;DHT22;9654;52.302;8.120;2023-05-27T00:26:50;7.70;99.90
19044;DHT22;9654;52.302;8.120;2023-05-27T00:29:17;7.70;99.90
19044;DHT22;9654;52.302;8.120;2023-05-27T00:31:44;7.70;99.90
19044;DHT22;9654;52.302;8.120;2023-05-27T00:34:11;7.60;99.90
19044;DHT22;9654;52.302;8.120;2023-05-27T00:36:38;7.60;99.90
19044;DHT22;9654;52.302;8.120;2023-05-27T00:39:06;7.60;99.90
19044;DHT22;9654;52.302;8.120;2023-05-27T00:41:33;7.60;99.90
19044;DHT22;9654;52.302;8.120;2023-05-27T00:44:01;7.60;99.90
19044;DHT22;9654;52.302;8.120;2023-05-27T00:46:28;7.60;99.90
19044;DHT22;9654;52.302;8.120;2023-05-27T00:48:55;7.60;99.90
19044;DHT22;9654;52.302;8.120;2023-05-27T00:51:22;7.50;99.90
19044;DHT22;9654;52.302;8.120;2023-05-27T00:53:49;7.50;99.90
19044;DHT22;9654;52.302;8.120;2023-05-27T00:56:17;7.50;99.90
19044;DHT22;9654;52.302;8.120;2023-05-27T00:58:46;7.50;99.90
19044;DHT22;9654;52.302;8.120;2023-05-27T01:01:13;7.50;99.90
19044;DHT22;9654;52.302;8.120;2023-05-27T01:03:40;7.50;99.90
19044;DHT22;9654;52.302;8.120;2023-05-27T01:06:14;7.50;99.90
19044;DHT22;9654;52.302;8.120;2023-05-27T01:08:46;7.50;99.90
19044;DHT22;9654;52.302;8.120;2023-05-27T01:11:24;7.50;99.90
19044;DHT22;9654;52.302;8.120;2023-05-27T01:13:57;7.50;99.90
19044;DHT22;9654;52.302;8.120;2023-05-27T01:16:26;7.40;99.90
19044;DHT22;9654;52.302;8.120;2023-05-27T01:18:54;7.40;99.90
19044;DHT22;9654;52.302;8.120;2023-05-27T01:21:22;7.40;99.90
19044;DHT22;9654;52.302;8.120;2023-05-27T01:23:51;7.40;99.90
19044;DHT22;9654;52.302;8.120;2023-05-27T01:26:18;7.40;99.90
19044;DHT22;9654;52.302;8.120;2023-05-27T01:28:45;7.40;99.90
19044;DHT22;9654;52.302;8.120;2023-05-27T01:31:16;7.40;99.90
19044;DHT22;9654;52.302;8.120;2023-05-27T01:33:49;7.40;99.90
19044;DHT22;9654;52.302;8.120;2023-05-27T01:36:20;7.40;99.90
19044;DHT22;9654;52.302;8.120;2023-05-27T01:38:51;7.30;99.90
19044;DHT22;9654;52.302;8.120;2023-05-27T01:41:18;7.30;99.90
19044;DHT22;9654;52.302;8.120;2023-05-27T01:43:47;7.30;99.90
19044;DHT22;9654;52.302;8.120;2023-05-27T01:46:15;7.20;99.90
19044;DHT22;9654;52.302;8.120;2023-05-27T01:48:42;7.20;99.90
19044;DHT22;9654;52.302;8.120;2023-05-27T01:51:10;7.20;99.90
19044;DHT22;9654;52.302;8.120;2023-05-27T01:53:36;7.20;99.90
19044;DHT22;9654;52.302;8.120;2023-05-27T01:56:05;7.10;99.90
19044;DHT22;9654;52.302;8.120;2023-05-27T01:58:32;7.00;99.90
19044;DHT22;9654;52.302;8.120;2023-05-27T02:00:58;7.00;99.90
19044;DHT22;9654;52.302;8.120;2023-05-27T02:03:25;7.00;99.90
19044;DHT22;9654;52.302;8.120;2023-05-27T02:05:53;7.00;99.90
19044;DHT22;9654;52.302;8.120;2023-05-27T02:08:19;7.00;99.90
19044;DHT22;9654;52.302;8.120;2023-05-27T02:10:46;6.90;99.90
19044;DHT22;9654;52.302;8.120;2023-05-27T02:13:14;6.90;99.90
19044;DHT22;9654;52.302;8.120;2023-05-27T02:15:41;6.90;99.90
19044;DHT22;9654;52.302;8.120;2023-05-27T02:18:08;6.90;99.90
19044;DHT22;9654;52.302;8.120;2023-05-27T02:20:35;6.90;99.90
19044;DHT22;9654;52.302;8.120;2023-05-27T02:23:05;6.80;99.90
19044;DHT22;9654;52.302;8.120;2023-05-27T02:25:32;6.80;99.90
19044;DHT22;9654;52.302;8.120;2023-05-27T02:27:59;6.80;99.90
19044;DHT22;9654;52.302;8.120;2023-05-27T02:30:29;6.80;99.90
19044;DHT22;9654;52.302;8.120;2023-05-27T02:32:56;6.70;99.90
19044;DHT22;9654;52.302;8.120;2023-05-27T02:35:23;6.70;99.90
19044;DHT22;9654;52.302;8.120;2023-05-27T02:37:50;6.80;99.90
19044;DHT22;9654;52.302;8.120;2023-05-27T02:40:24;6.80;99.90
19044;DHT22;9654;52.302;8.120;2023-05-27T02:42:50;6.80;99.90
19044;DHT22;9654;52.302;8.120;2023-05-27T02:45:17;6.70;99.90
19044;DHT22;9654;52.302;8.120;2023-05-27T02:47:45;6.70;99.90
19044;DHT22;9654;52.302;8.120;2023-05-27T02:50:12;6.70;99.90
19044;DHT22;9654;52.302;8.120;2023-05-27T02:52:39;6.60;99.90
19044;DHT22;9654;52.302;8.120;2023-05-27T02:55:07;6.60;99.90
19044;DHT22;9654;52.302;8.120;2023-05-27T02:57:33;6.60;99.90
19044;DHT22;9654;52.302;8.120;2023-05-27T03:00:00;6.60;99.90
19044;DHT22;9654;52.302;8.120;2023-05-27T03:02:27;6.50;99.90
19044;DHT22;9654;52.302;8.120;2023-05-27T03:04:56;6.50;99.90
19044;DHT22;9654;52.302;8.120;2023-05-27T03:07:26;6.50;99.90
19044;DHT22;9654;52.302;8.120;2023-05-27T03:09:54;6.50;99.90
19044;DHT22;9654;52.302;8.120;2023-05-27T03:12:21;6.50;99.90
19044;DHT22;9654;52.302;8.120;2023-05-27T03:14:48;6.40;99.90
19044;DHT22;9654;52.302;8.120;2023-05-27T03:17:14;6.40;99.90
19044;DHT22;9654;52.302;8.120;2023-05-27T03:19:41;6.30;99.90
19044;DHT22;9654;52.302;8.120;2023-05-27T03:22:10;6.20;99.90
19044;DHT22;9654;52.302;8.120;2023-05-27T03:24:37;6.20;99.90
19044;DHT22;9654;52.302;8.120;2023-05-27T03:27:04;6.20;99.90
19044;DHT22;9654;52.302;8.120;2023-05-27T03:29:32;6.20;99.90
19044;DHT22;9654;52.302;8.120;2023-05-27T03:31:59;6.20;99.90
19044;DHT22;9654;52.302;8.120;2023-05-27T03:34:25;6.20;99.90
19044;DHT22;9654;52.302;8.120;2023-05-27T03:36:52;6.30;99.90
19044;DHT22;9654;52.302;8.120;2023-05-27T03:39:20;6.30;99.90
19044;DHT22;9654;52.302;8.120;2023-05-27T03:41:47;6.40;99.90
19044;DHT22;9654;52.302;8.120;2023-05-27T03:44:14;6.40;99.90
19044;DHT22;9654;52.302;8.120;2023-05-27T03:46:41;6.40;99.90
19044;DHT22;9654;52.302;8.120;2023-05-27T03:49:08;6.40;99.90
19044;DHT22;9654;52.302;8.120;2023-05-27T03:51:35;6.40;99.90
19044;DHT22;9654;52.302;8.120;2023-05-27T03:54:02;6.40;99.90
19044;DHT22;9654;52.302;8.120;2023-05-27T03:56:30;6.40;99.90
19044;DHT22;9654;52.302;8.120;2023-05-27T03:58:57;6.40;99.90
19044;DHT22;9654;52.302;8.120;2023-05-27T04:01:23;6.50;99.90
19044;DHT22;9654;52.302;8.120;2023-05-27T04:03:53;6.50;99.90
19044;DHT22;9654;52.302;8.120;2023-05-27T04:06:19;6.50;99.90
19044;DHT22;9654;52.302;8.120;2023-05-27T04:08:46;6.50;99.90
19044;DHT22;9654;52.302;8.120;2023-05-27T04:11:13;6.50;99.90
19044;DHT22;9654;52.302;8.120;2023-05-27T04:13:41;6.50;99.90
19044;DHT22;9654;52.302;8.120;2023-05-27T04:16:08;6.40;99.90
19044;DHT22;9654;52.302;8.120;2023-05-27T04:18:36;6.50;99.90
19044;DHT22;9654;52.302;8.120;2023-05-27T04:21:02;6.60;99.90
19044;DHT22;9654;52.302;8.120;2023-05-27T04:23:30;6.60;99.90
19044;DHT22;9654;52.302;8.120;2023-05-27T04:25:56;6.70;99.90
19044;DHT22;9654;52.302;8.120;2023-05-27T04:28:23;6.70;99.90
19044;DHT22;9654;52.302;8.120;2023-05-27T04:30:51;6.70;99.90
19044;DHT22;9654;52.302;8.120;2023-05-27T04:33:19;6.90;99.90
19044;DHT22;9654;52.302;8.120;2023-05-27T04:35:46;6.90;99.90
19044;DHT22;9654;52.302;8.120;2023-05-27T04:38:14;7.00;99.90
19044;DHT22;9654;52.302;8.120;2023-05-27T04:40:42;7.10;99.90
19044;DHT22;9654;52.302;8.120;2023-05-27T04:43:10;7.20;99.90
19044;DHT22;9654;52.302;8.120;2023-05-27T04:45:40;7.30;99.90
19044;DHT22;9654;52.302;8.120;2023-05-27T04:48:08;7.40;99.90
19044;DHT22;9654;52.302;8.120;2023-05-27T04:50:35;7.40;99.90
19044;DHT22;9654;52.302;8.120;2023-05-27T04:53:02;7.50;99.90
19044;DHT22;9654;52.302;8.120;2023-05-27T04:55:29;7.60;99.90
19044;DHT22;9654;52.302;8.120;2023-05-27T04:57:56;7.70;99.90
19044;DHT22;9654;52.302;8.120;2023-05-27T05:00:23;7.70;99.90
19044;DHT22;9654;52.302;8.120;2023-05-27T05:03:01;7.80;99.90
19044;DHT22;9654;52.302;8.120;2023-05-27T05:05:29;7.80;99.90
19044;DHT22;9654;52.302;8.120;2023-05-27T05:07:57;7.90;99.90
19044;DHT22;9654;52.302;8.120;2023-05-27T05:10:23;8.00;99.90
19044;DHT22;9654;52.302;8.120;2023-05-27T05:12:50;8.10;99.90
19044;DHT22;9654;52.302;8.120;2023-05-27T05:15:17;8.10;99.90
19044;DHT22;9654;52.302;8.120;2023-05-27T05:17:44;8.20;99.90
19044;DHT22;9654;52.302;8.120;2023-05-27T05:20:12;8.30;99.90
19044;DHT22;9654;52.302;8.120;2023-05-27T05:22:40;8.30;99.90
19044;DHT22;9654;52.302;8.120;2023-05-27T05:25:07;8.50;99.90
19044;DHT22;9654;52.302;8.120;2023-05-27T05:27:34;8.60;99.90
19044;DHT22;9654;52.302;8.120;2023-05-27T05:30:03;8.60;99.90
19044;DHT22;9654;52.302;8.120;2023-05-27T05:32:30;8.60;99.90
19044;DHT22;9654;52.302;8.120;2023-05-27T05:34:57;8.80;99.90
19044;DHT22;9654;52.302;8.120;2023-05-27T05:37:23;8.80;99.90
19044;DHT22;9654;52.302;8.120;2023-05-27T05:39:54;9.00;99.90
19044;DHT22;9654;52.302;8.120;2023-05-27T05:42:21;9.00;99.90
19044;DHT22;9654;52.302;8.120;2023-05-27T05:44:49;9.10;99.90
19044;DHT22;9654;52.302;8.120;2023-05-27T05:47:15;9.20;99.90
19044;DHT22;9654;52.302;8.120;2023-05-27T05:49:42;9.30;99.90
19044;DHT22;9654;52.302;8.120;2023-05-27T05:52:09;9.40;99.90
19044;DHT22;9654;52.302;8.120;2023-05-27T05:54:36;9.50;99.90
19044;DHT22;9654;52.302;8.120;2023-05-27T05:57:04;9.60;99.90
19044;DHT22;9654;52.302;8.120;2023-05-27T05:59:31;9.60;99.90
19044;DHT22;9654;52.302;8.120;2023-05-27T06:01:58;9.70;99.90
19044;DHT22;9654;52.302;8.120;2023-05-27T06:04:25;9.80;99.90
19044;DHT22;9654;52.302;8.120;2023-05-27T06:06:51;9.90;99.90
19044;DHT22;9654;52.302;8.120;2023-05-27T06:09:18;9.90;99.90
19044;DHT22;9654;52.302;8.120;2023-05-27T06:11:45;10.10;99.90
19044;DHT22;9654;52.302;8.120;2023-05-27T06:14:13;10.10;99.90
19044;DHT22;9654;52.302;8.120;2023-05-27T06:16:40;10.30;99.90
19044;DHT22;9654;52.302;8.120;2023-05-27T06:19:06;10.40;99.90
19044;DHT22;9654;52.302;8.120;2023-05-27T06:21:33;10.40;99.90
19044;DHT22;9654;52.302;8.120;2023-05-27T06:24:00;10.50;99.90
19044;DHT22;9654;52.302;8.120;2023-05-27T06:26:27;10.60;99.90
19044;DHT22;9654;52.302;8.120;2023-05-27T06:28:54;10.70;99.90
19044;DHT22;9654;52.302;8.120;2023-05-27T06:31:22;10.90;99.90
19044;DHT22;9654;52.302;8.120;2023-05-27T06:33:49;11.00;99.90
19044;DHT22;9654;52.302;8.120;2023-05-27T06:36:16;11.10;99.90
19044;DHT22;9654;52.302;8.120;2023-05-27T06:38:44;11.40;99.90
19044;DHT22;9654;52.302;8.120;2023-05-27T06:41:11;11.50;99.90
19044;DHT22;9654;52.302;8.120;2023-05-27T06:43:37;11.60;99.90
19044;DHT22;9654;52.302;8.120;2023-05-27T06:46:04;11.80;99.90
19044;DHT22;9654;52.302;8.120;2023-05-27T06:48:32;11.90;99.90
19044;DHT22;9654;52.302;8.120;2023-05-27T06:50:59;12.00;99.90
19044;DHT22;9654;52.302;8.120;2023-05-27T06:53:26;12.20;99.90
19044;DHT22;9654;52.302;8.120;2023-05-27T06:55:53;12.30;99.90
19044;DHT22;9654;52.302;8.120;2023-05-27T06:58:20;12.30;99.90
19044;DHT22;9654;52.302;8.120;2023-05-27T07:00:46;12.20;99.90
19044;DHT22;9654;52.302;8.120;2023-05-27T07:03:13;12.30;99.90
19044;DHT22;9654;52.302;8.120;2023-05-27T07:05:41;12.40;99.90
19044;DHT22;9654;52.302;8.120;2023-05-27T07:08:08;12.60;99.90
19044;DHT22;9654;52.302;8.120;2023-05-27T07:10:35;12.70;99.90
19044;DHT22;9654;52.302;8.120;2023-05-27T07:13:02;12.80;99.90
19044;DHT22;9654;52.302;8.120;2023-05-27T07:15:29;12.90;99.90
19044;DHT22;9654;52.302;8.120;2023-05-27T07:17:56;12.90;99.90
19044;DHT22;9654;52.302;8.120;2023-05-27T07:20:23;13.00;99.90
19044;DHT22;9654;52.302;8.120;2023-05-27T07:22:51;13.10;99.90
19044;DHT22;9654;52.302;8.120;2023-05-27T07:25:18;13.30;99.90
19044;DHT22;9654;52.302;8.120;2023-05-27T07:27:45;13.40;99.90
19044;DHT22;9654;52.302;8.120;2023-05-27T07:30:12;13.50;99.90
19044;DHT22;9654;52.302;8.120;2023-05-27T07:32:39;13.40;99.90
19044;DHT22;9654;52.302;8.120;2023-05-27T07:35:06;13.30;99.90
19044;DHT22;9654;52.302;8.120;2023-05-27T07:37:33;13.30;99.90
19044;DHT22;9654;52.302;8.120;2023-05-27T07:40:01;13.50;99.90
19044;DHT22;9654;52.302;8.120;2023-05-27T07:42:28;13.80;99.90
19044;DHT22;9654;52.302;8.120;2023-05-27T07:44:55;14.00;99.90
19044;DHT22;9654;52.302;8.120;2023-05-27T07:47:22;14.20;99.90
19044;DHT22;9654;52.302;8.120;2023-05-27T07:49:50;14.20;99.90
19044;DHT22;9654;52.302;8.120;2023-05-27T07:52:17;14.30;99.90
19044;DHT22;9654;52.302;8.120;2023-05-27T07:54:44;14.30;99.90
19044;DHT22;9654;52.302;8.120;2023-05-27T07:57:12;14.40;99.90
19044;DHT22;9654;52.302;8.120;2023-05-27T07:59:39;14.70;99.90
19044;DHT22;9654;52.302;8.120;2023-05-27T08:02:06;14.90;99.90
19044;DHT22;9654;52.302;8.120;2023-05-27T08:04:33;15.10;99.90
19044;DHT22;9654;52.302;8.120;2023-05-27T08:07:00;15.30;99.90
19044;DHT22;9654;52.302;8.120;2023-05-27T08:09:27;15.40;99.90
19044;DHT22;9654;52.302;8.120;2023-05-27T08:11:53;15.50;99.90
19044;DHT22;9654;52.302;8.120;2023-05-27T08:14:22;15.50;99.90
19044;DHT22;9654;52.302;8.120;2023-05-27T08:16:50;15.50;99.90
19044;DHT22;9654;52.302;8.120;2023-05-27T08:19:17;15.50;99.90
19044;DHT22;9654;52.302;8.120;2023-05-27T08:21:43;15.60;99.90
19044;DHT22;9654;52.302;8.120;2023-05-27T08:24:10;15.80;99.90
19044;DHT22;9654;52.302;8.120;2023-05-27T08:26:37;15.90;99.90
19044;DHT22;9654;52.302;8.120;2023-05-27T08:29:04;16.10;99.90
19044;DHT22;9654;52.302;8.120;2023-05-27T08:31:33;16.20;99.90
19044;DHT22;9654;52.302;8.120;2023-05-27T08:34:00;16.50;99.90
19044;DHT22;9654;52.302;8.120;2023-05-27T08:36:26;16.60;99.90
19044;DHT22;9654;52.302;8.120;2023-05-27T08:38:53;16.70;99.90
19044;DHT22;9654;52.302;8.120;2023-05-27T08:41:20;16.90;99.90
19044;DHT22;9654;52.302;8.120;2023-05-27T08:43:48;16.90;99.90
19044;DHT22;9654;52.302;8.120;2023-05-27T08:46:15;17.10;99.90
19044;DHT22;9654;52.302;8.120;2023-05-27T08:48:43;17.30;99.90
19044;DHT22;9654;52.302;8.120;2023-05-27T08:51:10;17.40;99.90
19044;DHT22;9654;52.302;8.120;2023-05-27T08:53:37;17.40;99.90
19044;DHT22;9654;52.302;8.120;2023-05-27T08:56:05;17.20;99.90
19044;DHT22;9654;52.302;8.120;2023-05-27T08:58:33;17.30;99.90
19044;DHT22;9654;52.302;8.120;2023-05-27T09:01:01;17.50;99.90
19044;DHT22;9654;52.302;8.120;2023-05-27T09:03:28;17.70;99.90
19044;DHT22;9654;52.302;8.120;2023-05-27T09:05:56;17.80;99.90
19044;DHT22;9654;52.302;8.120;2023-05-27T09:08:23;17.80;99.90
19044;DHT22;9654;52.302;8.120;2023-05-27T09:10:50;17.80;99.90
19044;DHT22;9654;52.302;8.120;2023-05-27T09:13:25;17.90;99.90
19044;DHT22;9654;52.302;8.120;2023-05-27T09:15:58;18.10;99.90
19044;DHT22;9654;52.302;8.120;2023-05-27T09:18:26;18.30;99.90
19044;DHT22;9654;52.302;8.120;2023-05-27T09:21:01;18.40;99.90
19044;DHT22;9654;52.302;8.120;2023-05-27T09:23:29;18.30;99.90
19044;DHT22;9654;52.302;8.120;2023-05-27T09:25:59;18.30;99.90
19044;DHT22;9654;52.302;8.120;2023-05-27T09:28:26;18.10;99.90
19044;DHT22;9654;52.302;8.120;2023-05-27T09:30:59;18.20;99.90
19044;DHT22;9654;52.302;8.120;2023-05-27T09:33:30;18.40;99.90
19044;DHT22;9654;52.302;8.120;2023-05-27T09:35:57;18.80;99.90
19044;DHT22;9654;52.302;8.120;2023-05-27T09:38:28;18.90;99.90
19044;DHT22;9654;52.302;8.120;2023-05-27T09:40:55;18.90;99.90
19044;DHT22;9654;52.302;8.120;2023-05-27T09:43:23;18.60;99.90
19044;DHT22;9654;52.302;8.120;2023-05-27T09:45:51;18.70;99.90
19044;DHT22;9654;52.302;8.120;2023-05-27T09:48:18;18.70;99.90
19044;DHT22;9654;52.302;8.120;2023-05-27T09:50:46;19.00;99.90
19044;DHT22;9654;52.302;8.120;2023-05-27T09:53:14;19.30;99.90
19044;DHT22;9654;52.302;8.120;2023-05-27T09:55:43;19.40;99.90
19044;DHT22;9654;52.302;8.120;2023-05-27T09:58:11;19.20;99.90
19044;DHT22;9654;52.302;8.120;2023-05-27T10:00:39;19.20;99.90
19044;DHT22;9654;52.302;8.120;2023-05-27T10:03:07;19.10;99.90
19044;DHT22;9654;52.302;8.120;2023-05-27T10:05:36;19.10;99.90
19044;DHT22;9654;52.302;8.120;2023-05-27T10:08:03;18.90;99.90
19044;DHT22;9654;52.302;8.120;2023-05-27T10:10:30;19.00;99.90
19044;DHT22;9654;52.302;8.120;2023-05-27T10:13:00;19.40;99.90
19044;DHT22;9654;52.302;8.120;2023-05-27T10:15:28;19.30;99.90
19044;DHT22;9654;52.302;8.120;2023-05-27T10:17:57;19.30;99.90
19044;DHT22;9654;52.302;8.120;2023-05-27T10:20:26;19.40;99.90
19044;DHT22;9654;52.302;8.120;2023-05-27T10:22:53;19.80;99.90
19044;DHT22;9654;52.302;8.120;2023-05-27T10:25:20;19.70;99.90
19044;DHT22;9654;52.302;8.120;2023-05-27T10:27:47;19.80;99.90
19044;DHT22;9654;52.302;8.120;2023-05-27T10:30:16;19.80;99.90
19044;DHT22;9654;52.302;8.120;2023-05-27T10:32:48;20.00;99.90
19044;DHT22;9654;52.302;8.120;2023-05-27T10:35:16;20.10;99.90
19044;DHT22;9654;52.302;8.120;2023-05-27T10:37:43;19.90;99.90
19044;DHT22;9654;52.302;8.120;2023-05-27T10:40:10;19.70;99.90
19044;DHT22;9654;52.302;8.120;2023-05-27T10:42:37;19.60;99.90
19044;DHT22;9654;52.302;8.120;2023-05-27T10:45:06;19.60;99.90
19044;DHT22;9654;52.302;8.120;2023-05-27T10:47:38;19.80;99.90
19044;DHT22;9654;52.302;8.120;2023-05-27T10:50:12;19.90;99.90
19044;DHT22;9654;52.302;8.120;2023-05-27T10:52:40;19.70;99.90
19044;DHT22;9654;52.302;8.120;2023-05-27T10:55:07;19.90;99.90
19044;DHT22;9654;52.302;8.120;2023-05-27T10:57:35;20.20;99.90
19044;DHT22;9654;52.302;8.120;2023-05-27T11:00:03;20.30;99.90
19044;DHT22;9654;52.302;8.120;2023-05-27T11:02:35;20.20;99.90
19044;DHT22;9654;52.302;8.120;2023-05-27T11:05:10;20.10;99.90
19044;DHT22;9654;52.302;8.120;2023-05-27T11:07:37;20.20;99.90
19044;DHT22;9654;52.302;8.120;2023-05-27T11:10:06;20.40;99.90
19044;DHT22;9654;52.302;8.120;2023-05-27T11:12:33;20.40;99.90
19044;DHT22;9654;52.302;8.120;2023-05-27T11:15:01;20.50;99.90
19044;DHT22;9654;52.302;8.120;2023-05-27T11:17:28;20.30;99.90
19044;DHT22;9654;52.302;8.120;2023-05-27T11:19:55;20.30;99.90
19044;DHT22;9654;52.302;8.120;2023-05-27T11:22:24;20.40;99.90
19044;DHT22;9654;52.302;8.120;2023-05-27T11:24:57;20.40;99.90
19044;DHT22;9654;52.302;8.120;2023-05-27T11:27:31;20.20;99.90
19044;DHT22;9654;52.302;8.120;2023-05-27T11:29:58;20.40;99.90
19044;DHT22;9654;52.302;8.120;2023-05-27T11:32:25;20.70;99.90
19044;DHT22;9654;52.302;8.120;2023-05-27T11:34:52;21.30;99.90
19044;DHT22;9654;52.302;8.120;2023-05-27T11:37:21;21.50;99.90
19044;DHT22;9654;52.302;8.120;2023-05-27T11:39:52;21.00;99.90
19044;DHT22;9654;52.302;8.120;2023-05-27T11:42:23;20.90;99.90
19044;DHT22;9654;52.302;8.120;2023-05-27T11:44:50;20.90;99.90
19044;DHT22;9654;52.302;8.120;2023-05-27T11:47:18;21.10;99.90
19044;DHT22;9654;52.302;8.120;2023-05-27T11:49:46;21.40;99.90
19044;DHT22;9654;52.302;8.120;2023-05-27T11:52:13;21.20;99.90
19044;DHT22;9654;52.302;8.120;2023-05-27T11:54:39;21.30;99.90
19044;DHT22;9654;52.302;8.120;2023-05-27T11:57:08;21.40;99.90
19044;DHT22;9654;52.302;8.120;2023-05-27T11:59:36;21.60;99.90
19044;DHT22;9654;52.302;8.120;2023-05-27T12:02:04;21.90;99.90
19044;DHT22;9654;52.302;8.120;2023-05-27T12:04:31;22.00;99.90
19044;DHT22;9654;52.302;8.120;2023-05-27T12:06:58;21.90;99.90
19044;DHT22;9654;52.302;8.120;2023-05-27T12:09:26;21.90;99.90
19044;DHT22;9654;52.302;8.120;2023-05-27T12:11:52;21.90;99.90
19044;DHT22;9654;52.302;8.120;2023-05-27T12:14:22;21.90;99.90
19044;DHT22;9654;52.302;8.120;2023-05-27T12:16:49;21.80;99.90
19044;DHT22;9654;52.302;8.120;2023-05-27T12:19:15;21.70;99.90
19044;DHT22;9654;52.302;8.120;2023-05-27T12:21:42;21.80;99.90
19044;DHT22;9654;52.302;8.120;2023-05-27T12:24:11;21.60;99.90
19044;DHT22;9654;52.302;8.120;2023-05-27T12:26:38;21.60;99.90
19044;DHT22;9654;52.302;8.120;2023-05-27T12:29:06;21.70;99.90
19044;DHT22;9654;52.302;8.120;2023-05-27T12:31:34;21.70;99.90
19044;DHT22;9654;52.302;8.120;2023-05-27T12:34:01;21.90;99.90
19044;DHT22;9654;52.302;8.120;2023-05-27T12:36:28;22.10;99.90
19044;DHT22;9654;52.302;8.120;2023-05-27T12:38:55;21.80;99.90
19044;DHT22;9654;52.302;8.120;2023-05-27T12:41:21;22.00;99.90
19044;DHT22;9654;52.302;8.120;2023-05-27T12:43:48;21.90;99.90
19044;DHT22;9654;52.302;8.120;2023-05-27T12:46:15;21.60;99.90
19044;DHT22;9654;52.302;8.120;2023-05-27T12:48:43;21.90;99.90
19044;DHT22;9654;52.302;8.120;2023-05-27T12:51:10;22.10;99.90
19044;DHT22;9654;52.302;8.120;2023-05-27T12:53:37;22.20;99.90
19044;DHT22;9654;52.302;8.120;2023-05-27T12:56:04;22.40;99.90
19044;DHT22;9654;52.302;8.120;2023-05-27T12:58:31;22.40;99.90
19044;DHT22;9654;52.302;8.120;2023-05-27T13:00:58;22.60;99.90
19044;DHT22;9654;52.302;8.120;2023-05-27T13:03:25;22.70;99.90
19044;DHT22;9654;52.302;8.120;2023-05-27T13:05:54;22.90;99.90
19044;DHT22;9654;52.302;8.120;2023-05-27T13:08:20;23.20;99.90
19044;DHT22;9654;52.302;8.120;2023-05-27T13:10:48;23.10;99.90
19044;DHT22;9654;52.302;8.120;2023-05-27T13:13:15;23.20;99.90
19044;DHT22;9654;52.302;8.120;2023-05-27T13:15:42;23.10;99.90
19044;DHT22;9654;52.302;8.120;2023-05-27T13:18:09;23.10;99.90
19044;DHT22;9654;52.302;8.120;2023-05-27T13:20:36;22.80;99.90
19044;DHT22;9654;52.302;8.120;2023-05-27T13:23:04;22.50;99.90
19044;DHT22;9654;52.302;8.120;2023-05-27T13:25:31;22.60;99.90
19044;DHT22;9654;52.302;8.120;2023-05-27T13:27:58;22.70;99.90
19044;DHT22;9654;52.302;8.120;2023-05-27T13:30:25;23.00;99.90
19044;DHT22;9654;52.302;8.120;2023-05-27T13:32:52;23.40;99.90
19044;DHT22;9654;52.302;8.120;2023-05-27T13:35:20;23.10;99.00
19044;DHT22;9654;52.302;8.120;2023-05-27T13:37:47;23.00;99.90
19044;DHT22;9654;52.302;8.120;2023-05-27T13:40:15;23.10;99.90
19044;DHT22;9654;52.302;8.120;2023-05-27T13:42:42;23.30;99.90
19044;DHT22;9654;52.302;8.120;2023-05-27T13:45:09;23.50;99.40
19044;DHT22;9654;52.302;8.120;2023-05-27T13:47:36;23.90;99.30
19044;DHT22;9654;52.302;8.120;2023-05-27T13:50:05;24.00;98.90
19044;DHT22;9654;52.302;8.120;2023-05-27T13:52:32;23.70;97.70
19044;DHT22;9654;52.302;8.120;2023-05-27T13:54:59;23.30;97.70
19044;DHT22;9654;52.302;8.120;2023-05-27T13:57:27;23.10;98.00
19044;DHT22;9654;52.302;8.120;2023-05-27T13:59:53;23.20;98.80
19044;DHT22;9654;52.302;8.120;2023-05-27T14:02:20;23.50;97.90
19044;DHT22;9654;52.302;8.120;2023-05-27T14:04:47;23.20;98.00
19044;DHT22;9654;52.302;8.120;2023-05-27T14:07:14;23.10;97.80
19044;DHT22;9654;52.302;8.120;2023-05-27T14:09:41;23.00;97.60
19044;DHT22;9654;52.302;8.120;2023-05-27T14:12:07;23.20;97.70
19044;DHT22;9654;52.302;8.120;2023-05-27T14:14:35;23.20;97.80
19044;DHT22;9654;52.302;8.120;2023-05-27T14:17:02;23.00;97.80
19044;DHT22;9654;52.302;8.120;2023-05-27T14:19:29;23.00;98.50
19044;DHT22;9654;52.302;8.120;2023-05-27T14:21:56;23.00;98.40
19044;DHT22;9654;52.302;8.120;2023-05-27T14:24:23;22.80;98.50
19044;DHT22;9654;52.302;8.120;2023-05-27T14:26:50;23.00;98.70
19044;DHT22;9654;52.302;8.120;2023-05-27T14:29:17;23.00;97.90
19044;DHT22;9654;52.302;8.120;2023-05-27T14:31:45;23.00;98.00
19044;DHT22;9654;52.302;8.120;2023-05-27T14:34:12;23.20;97.60
19044;DHT22;9654;52.302;8.120;2023-05-27T14:36:38;23.50;98.00
19044;DHT22;9654;52.302;8.120;2023-05-27T14:39:06;23.70;97.80
19044;DHT22;9654;52.302;8.120;2023-05-27T14:41:33;24.10;97.30
19044;DHT22;9654;52.302;8.120;2023-05-27T14:44:00;24.10;97.20
19044;DHT22;9654;52.302;8.120;2023-05-27T14:46:27;23.60;97.50
19044;DHT22;9654;52.302;8.120;2023-05-27T14:48:55;23.40;98.00
19044;DHT22;9654;52.302;8.120;2023-05-27T14:51:22;23.40;98.00
19044;DHT22;9654;52.302;8.120;2023-05-27T14:53:48;23.60;97.50
19044;DHT22;9654;52.302;8.120;2023-05-27T14:56:15;23.60;97.40
19044;DHT22;9654;52.302;8.120;2023-05-27T14:58:42;23.70;97.10
19044;DHT22;9654;52.302;8.120;2023-05-27T15:01:09;23.60;97.70
19044;DHT22;9654;52.302;8.120;2023-05-27T15:03:36;23.50;97.50
19044;DHT22;9654;52.302;8.120;2023-05-27T15:06:05;23.30;97.30
19044;DHT22;9654;52.302;8.120;2023-05-27T15:08:34;23.10;98.30
19044;DHT22;9654;52.302;8.120;2023-05-27T15:11:01;23.10;98.00
19044;DHT22;9654;52.302;8.120;2023-05-27T15:13:28;23.30;97.50
19044;DHT22;9654;52.302;8.120;2023-05-27T15:15:55;23.20;98.10
19044;DHT22;9654;52.302;8.120;2023-05-27T15:18:21;23.30;97.40
19044;DHT22;9654;52.302;8.120;2023-05-27T15:20:48;23.50;97.50
19044;DHT22;9654;52.302;8.120;2023-05-27T15:23:17;23.60;97.60
19044;DHT22;9654;52.302;8.120;2023-05-27T15:25:44;23.40;97.30
19044;DHT22;9654;52.302;8.120;2023-05-27T15:28:10;23.50;97.70
19044;DHT22;9654;52.302;8.120;2023-05-27T15:30:37;23.70;97.50
19044;DHT22;9654;52.302;8.120;2023-05-27T15:33:04;23.70;97.10
19044;DHT22;9654;52.302;8.120;2023-05-27T15:35:31;23.60;97.40
19044;DHT22;9654;52.302;8.120;2023-05-27T15:37:58;23.60;96.70
19044;DHT22;9654;52.302;8.120;2023-05-27T15:40:26;23.90;96.80
19044;DHT22;9654;52.302;8.120;2023-05-27T15:42:53;24.30;95.70
19044;DHT22;9654;52.302;8.120;2023-05-27T15:45:20;24.20;96.00
19044;DHT22;9654;52.302;8.120;2023-05-27T15:47:47;24.70;95.60
19044;DHT22;9654;52.302;8.120;2023-05-27T15:50:15;24.70;95.20
19044;DHT22;9654;52.302;8.120;2023-05-27T15:52:42;24.90;95.20
19044;DHT22;9654;52.302;8.120;2023-05-27T15:55:08;24.90;94.30